createdAt,value
2019-03-19T00:01:28.861Z,71.14
2019-03-19T00:03:59.115Z,71.39
2019-03-19T00:06:29.403Z,71.51
2019-03-19T00:08:59.763Z,72.02
2019-03-19T00:11:29.995Z,71.93
2019-03-19T00:14:00.431Z,72.21
2019-03-19T00:16:30.663Z,72.08
2019-03-19T00:19:00.975Z,72.58
2019-03-19T00:21:31.273Z,72.95
2019-03-19T00:24:01.495Z,73.16
2019-03-19T00:26:31.815Z,72.62
2019-03-19T00:29:02.143Z,73.25
2019-03-19T00:31:32.319Z,72.92
2019-03-19T00:34:02.592Z,73.23
2019-03-19T00:36:32.799Z,73.21
2019-03-19T00:39:03.030Z,73.26
2019-03-19T00:41:33.370Z,72.94
2019-03-19T00:44:03.703Z,73.32
2019-03-19T00:46:33.894Z,73.39
2019-03-19T00:49:06.630Z,73.44
2019-03-19T00:51:36.118Z,73.43
2019-03-19T00:54:06.416Z,73.05
2019-03-19T00:56:36.948Z,73.48
2019-03-19T00:59:07.232Z,72.75
2019-03-19T01:01:38.778Z,72.46
2019-03-19T01:04:11.562Z,73.34
2019-03-19T01:06:41.736Z,73.36
2019-03-19T01:09:11.978Z,73.81
2019-03-19T01:11:42.215Z,73.96
2019-03-19T01:14:13.628Z,73.56
2019-03-19T01:16:43.863Z,73.94
2019-03-19T01:19:15.151Z,73.93
2019-03-19T01:21:45.380Z,74.20
2019-03-19T01:24:17.706Z,73.96
2019-03-19T01:26:47.952Z,73.56
2019-03-19T01:29:18.224Z,72.70
2019-03-19T01:31:48.475Z,73.03
2019-03-19T01:34:18.694Z,72.64
2019-03-19T01:36:50.323Z,72.63
2019-03-19T01:39:21.641Z,72.59
2019-03-19T01:41:52.098Z,72.62
2019-03-19T01:44:22.321Z,72.33
2019-03-19T01:46:52.520Z,71.57
2019-03-19T01:49:22.757Z,71.86
2019-03-19T01:51:52.989Z,72.26
2019-03-19T01:54:23.201Z,72.43
2019-03-19T01:56:53.535Z,72.29
2019-03-19T01:59:23.852Z,72.02
2019-03-19T02:01:54.086Z,71.66
2019-03-19T02:04:24.457Z,71.97
2019-03-19T02:06:54.732Z,72.19
2019-03-19T02:09:24.992Z,71.97
2019-03-19T02:11:55.210Z,72.47
2019-03-19T02:14:25.941Z,72.06
2019-03-19T02:16:56.165Z,71.74
2019-03-19T02:19:26.575Z,72.28
2019-03-19T02:21:56.781Z,71.78
2019-03-19T02:24:27.046Z,72.37
2019-03-19T02:26:57.294Z,72.21
2019-03-19T02:29:27.534Z,72.26
2019-03-19T02:31:57.962Z,72.05
2019-03-19T02:34:28.264Z,71.90
2019-03-19T02:36:58.519Z,72.02
2019-03-19T02:39:28.732Z,71.88
2019-03-19T02:41:58.937Z,72.05
2019-03-19T02:44:29.214Z,72.22
2019-03-19T02:46:59.516Z,72.53
2019-03-19T02:49:29.754Z,71.85
2019-03-19T02:52:00.022Z,72.27
2019-03-19T02:54:30.399Z,72.27
2019-03-19T02:57:00.605Z,72.36
2019-03-19T02:59:31.159Z,72.09
2019-03-19T03:02:01.348Z,72.41
2019-03-19T03:04:31.668Z,72.10
2019-03-19T03:07:02.098Z,71.84
2019-03-19T03:09:32.500Z,71.69
2019-03-19T03:12:02.780Z,72.15
2019-03-19T03:14:34.239Z,71.94
2019-03-19T03:17:04.596Z,71.99
2019-03-19T03:19:34.986Z,72.51
2019-03-19T03:22:06.410Z,72.06
2019-03-19T03:24:36.863Z,72.65
2019-03-19T03:27:07.095Z,72.13
2019-03-19T03:29:37.412Z,71.96
2019-03-19T03:32:07.717Z,72.84
2019-03-19T03:34:37.945Z,72.96
2019-03-19T03:37:09.298Z,72.65
2019-03-19T03:39:41.565Z,73.21
2019-03-19T03:42:11.877Z,72.82
2019-03-19T03:44:42.153Z,73.48
2019-03-19T03:47:12.497Z,73.40
2019-03-19T03:49:42.757Z,73.27
2019-03-19T03:52:13.022Z,73.45
2019-03-19T03:54:43.328Z,74.00
2019-03-19T03:57:13.678Z,74.09
2019-03-19T03:59:43.858Z,74.24
2019-03-19T04:02:14.122Z,74.22
2019-03-19T04:04:44.428Z,74.17
2019-03-19T04:07:14.667Z,74.38
2019-03-19T04:09:44.937Z,74.31
2019-03-19T04:12:15.190Z,74.36
2019-03-19T04:14:46.755Z,74.17
2019-03-19T04:17:17.477Z,74.45
2019-03-19T04:19:48.171Z,74.44
2019-03-19T04:22:18.356Z,73.99
2019-03-19T04:24:48.627Z,74.35
2019-03-19T04:27:18.819Z,74.08
2019-03-19T04:29:49.173Z,74.77
2019-03-19T04:32:19.422Z,74.54
2019-03-19T04:34:49.706Z,74.68
2019-03-19T04:37:20.139Z,74.18
2019-03-19T04:39:50.441Z,74.66
2019-03-19T04:42:20.741Z,74.17
2019-03-19T04:44:51.033Z,74.83
2019-03-19T04:47:21.323Z,74.41
2019-03-19T04:49:51.585Z,74.21
2019-03-19T04:52:21.998Z,73.96
2019-03-19T04:54:52.284Z,73.09
2019-03-19T04:57:26.790Z,73.15
2019-03-19T04:59:54.470Z,74.06
2019-03-19T05:02:24.735Z,74.13
2019-03-19T05:04:54.961Z,74.41
2019-03-19T05:07:25.267Z,74.27
2019-03-19T05:09:55.591Z,74.44
2019-03-19T05:12:25.840Z,75.17
2019-03-19T05:14:56.490Z,74.89
2019-03-19T05:17:26.723Z,74.46
2019-03-19T05:20:01.298Z,74.43
2019-03-19T05:22:31.625Z,75.02
2019-03-19T05:25:01.856Z,74.83
2019-03-19T05:27:37.397Z,74.29
2019-03-19T05:30:05.001Z,75.12
2019-03-19T05:32:35.364Z,75.36
2019-03-19T05:35:06.090Z,75.30
2019-03-19T05:37:36.388Z,75.02
2019-03-19T05:40:07.416Z,74.98
2019-03-19T05:42:37.634Z,73.79
2019-03-19T05:45:10.084Z,74.02
2019-03-19T05:47:40.847Z,73.47
2019-03-19T05:50:11.721Z,73.72
2019-03-19T05:52:43.273Z,73.22
2019-03-19T05:55:14.005Z,74.23
2019-03-19T05:57:49.362Z,73.78
2019-03-19T06:00:16.684Z,74.98
2019-03-19T06:02:47.015Z,75.53
2019-03-19T06:05:20.899Z,75.28
2019-03-19T06:07:50.686Z,75.06
2019-03-19T06:10:21.074Z,75.12
2019-03-19T06:12:51.332Z,75.11
2019-03-19T06:15:22.121Z,74.26
2019-03-19T06:17:52.394Z,74.25
2019-03-19T06:20:22.613Z,74.85
2019-03-19T06:22:53.144Z,75.41
2019-03-19T06:25:23.425Z,74.91
2019-03-19T06:28:00.449Z,74.80
2019-03-19T06:30:25.648Z,74.65
2019-03-19T06:32:55.883Z,74.02
2019-03-19T06:35:26.262Z,73.98
2019-03-19T06:37:56.497Z,73.44
2019-03-19T06:40:27.848Z,74.08
2019-03-19T06:42:58.217Z,73.76
2019-03-19T06:45:29.703Z,73.95
2019-03-19T06:48:00.037Z,73.27
2019-03-19T06:50:30.428Z,73.40
2019-03-19T06:53:00.643Z,73.42
2019-03-19T06:55:30.960Z,72.11
2019-03-19T06:58:10.498Z,72.45
2019-03-19T07:00:33.888Z,72.20
2019-03-19T07:03:04.158Z,73.53
2019-03-19T07:05:34.537Z,73.69
2019-03-19T07:08:05.240Z,73.16
2019-03-19T07:10:35.775Z,73.67
2019-03-19T07:13:06.028Z,72.73
2019-03-19T07:15:36.751Z,73.52
2019-03-19T07:18:08.907Z,73.14
2019-03-19T07:20:39.209Z,72.96
2019-03-19T07:23:09.478Z,73.00
2019-03-19T07:25:39.914Z,73.56
2019-03-19T07:28:10.269Z,72.67
2019-03-19T07:30:40.957Z,74.18
2019-03-19T07:33:11.358Z,74.99
2019-03-19T07:35:41.578Z,75.60
2019-03-19T07:38:11.872Z,76.38
2019-03-19T07:40:42.211Z,76.58
2019-03-19T07:43:13.877Z,76.43
2019-03-19T07:45:44.111Z,75.65
2019-03-19T07:48:16.517Z,74.90
2019-03-19T07:50:48.776Z,74.32
2019-03-19T07:53:22.856Z,75.27
2019-03-19T07:55:56.522Z,74.87
2019-03-19T07:58:36.184Z,74.81
2019-03-19T08:01:03.594Z,74.78
2019-03-19T08:03:33.867Z,74.68
2019-03-19T08:06:04.076Z,74.85
2019-03-19T08:08:34.419Z,73.83
2019-03-19T08:11:04.864Z,74.50
2019-03-19T08:13:35.424Z,74.14
2019-03-19T08:16:06.228Z,73.46
2019-03-19T08:18:39.027Z,72.43
2019-03-19T08:21:09.790Z,71.37
2019-03-19T08:23:40.582Z,72.03
2019-03-19T08:26:11.119Z,72.43
2019-03-19T08:28:41.716Z,73.06
2019-03-19T08:31:14.946Z,73.94
2019-03-19T08:33:50.199Z,75.01
2019-03-19T08:36:20.934Z,74.82
2019-03-19T08:38:52.999Z,75.09
2019-03-19T08:41:23.221Z,74.21
2019-03-19T08:43:53.622Z,73.99
2019-03-19T08:46:24.381Z,73.89
2019-03-19T08:48:56.277Z,74.03
2019-03-19T08:51:26.471Z,73.83
2019-03-19T08:53:57.880Z,73.46
2019-03-19T08:56:28.190Z,73.87
2019-03-19T08:59:05.573Z,74.02
2019-03-19T09:01:30.456Z,74.90
2019-03-19T09:04:00.740Z,74.31
2019-03-19T09:06:32.889Z,75.90
2019-03-19T09:09:03.679Z,76.00
2019-03-19T09:11:36.607Z,76.14
2019-03-19T09:14:07.079Z,75.18
2019-03-19T09:16:38.306Z,73.33
2019-03-19T09:19:11.876Z,71.70
2019-03-19T09:21:42.347Z,70.40
2019-03-19T09:24:12.637Z,73.34
2019-03-19T09:26:42.985Z,72.59
2019-03-19T09:29:17.156Z,72.58
2019-03-19T09:31:45.366Z,71.15
2019-03-19T09:34:15.701Z,69.16
2019-03-19T09:36:49.627Z,68.28
2019-03-19T09:39:18.055Z,66.80
2019-03-19T09:41:48.317Z,65.33
2019-03-19T09:44:18.712Z,67.25
2019-03-19T09:46:49.049Z,67.64
2019-03-19T09:49:21.074Z,66.36
2019-03-19T09:51:51.560Z,64.97
2019-03-19T09:54:21.806Z,64.74
2019-03-19T09:56:52.064Z,63.66
2019-03-19T09:59:27.202Z,65.37
2019-03-19T10:01:55.492Z,65.73
2019-03-19T10:04:26.975Z,63.05
2019-03-19T10:07:05.632Z,63.72
2019-03-19T10:09:31.579Z,61.04
2019-03-19T10:12:02.002Z,62.07
2019-03-19T10:14:34.688Z,60.01
2019-03-19T10:17:05.499Z,57.07
2019-03-19T10:19:35.719Z,53.16
2019-03-19T10:22:06.346Z,48.46
2019-03-19T10:24:36.804Z,52.56
2019-03-19T10:27:07.204Z,51.53
2019-03-19T10:29:38.722Z,48.85
2019-03-19T10:32:09.204Z,50.16
2019-03-19T10:34:39.517Z,48.42
2019-03-19T10:37:12.055Z,50.74
2019-03-19T10:39:42.456Z,51.90
2019-03-19T10:42:12.703Z,52.05
2019-03-19T10:44:45.099Z,52.15
2019-03-19T10:47:15.425Z,52.90
2019-03-19T10:49:46.140Z,53.03
2019-03-19T10:52:16.457Z,52.73
2019-03-19T10:54:47.056Z,53.81
2019-03-19T10:57:18.361Z,53.99
2019-03-19T10:59:50.935Z,51.14
2019-03-19T11:02:21.254Z,52.06
2019-03-19T11:04:51.564Z,50.28
2019-03-19T11:07:23.088Z,46.92
2019-03-19T11:09:53.650Z,47.92
2019-03-19T11:12:25.176Z,47.05
2019-03-19T11:14:55.568Z,49.80
2019-03-19T11:17:32.998Z,49.17
2019-03-19T11:20:03.805Z,50.36
2019-03-19T11:22:34.195Z,51.72
2019-03-19T11:25:07.546Z,50.63
2019-03-19T11:27:37.785Z,52.28
2019-03-19T11:30:11.543Z,52.18
2019-03-19T11:32:41.833Z,51.60
2019-03-19T11:35:16.151Z,47.66
2019-03-19T11:37:46.512Z,46.09
2019-03-19T11:40:17.010Z,48.10
2019-03-19T11:42:47.313Z,45.20
2019-03-19T11:45:24.931Z,44.93
2019-03-19T11:47:57.043Z,44.03
2019-03-19T11:50:27.309Z,44.27
2019-03-19T11:52:57.638Z,44.77
2019-03-19T11:55:28.076Z,45.00
2019-03-19T11:57:58.391Z,46.25
2019-03-19T12:00:31.566Z,47.77
2019-03-19T12:03:12.249Z,47.15
2019-03-19T12:05:34.939Z,49.15
2019-03-19T12:08:06.546Z,51.75
2019-03-19T12:10:36.974Z,53.17
2019-03-19T12:13:09.687Z,53.90
2019-03-19T12:15:40.075Z,53.08
2019-03-19T12:18:10.475Z,51.54
2019-03-19T12:20:41.012Z,49.15
2019-03-19T12:23:12.385Z,46.80
2019-03-19T12:25:42.719Z,47.91
2019-03-19T12:28:13.305Z,43.52
2019-03-19T12:30:43.640Z,42.57
2019-03-19T12:33:14.105Z,41.90
2019-03-19T12:35:44.312Z,41.74
2019-03-19T12:38:14.711Z,40.98
2019-03-19T12:40:45.065Z,40.05
2019-03-19T12:43:15.293Z,40.30
2019-03-19T12:45:45.601Z,39.34
2019-03-19T12:48:16.049Z,39.32
2019-03-19T12:50:46.468Z,38.69
2019-03-19T12:53:18.291Z,39.04
2019-03-19T12:55:48.637Z,39.28
2019-03-19T12:58:19.044Z,39.12
2019-03-19T13:00:49.361Z,39.91
2019-03-19T13:03:19.965Z,40.75
2019-03-19T13:05:51.158Z,41.08
2019-03-19T13:08:21.675Z,41.15
2019-03-19T13:10:52.835Z,42.27
2019-03-19T13:13:23.552Z,42.94
2019-03-19T13:15:54.519Z,41.21
2019-03-19T13:18:25.628Z,42.10
2019-03-19T13:20:56.058Z,46.96
2019-03-19T13:23:26.514Z,52.55
2019-03-19T13:25:57.053Z,52.27
2019-03-19T13:28:27.323Z,57.27
2019-03-19T13:30:57.576Z,58.62
2019-03-19T13:33:27.949Z,58.85
2019-03-19T13:35:58.201Z,59.32
2019-03-19T13:38:28.457Z,58.67
2019-03-19T13:40:58.823Z,61.53
2019-03-19T13:43:29.147Z,59.10
2019-03-19T13:46:00.691Z,59.68
2019-03-19T13:48:30.994Z,58.37
2019-03-19T13:51:01.418Z,57.53
2019-03-19T13:53:31.730Z,53.94
2019-03-19T13:56:02.155Z,54.68
2019-03-19T13:58:32.349Z,51.48
2019-03-19T14:01:02.649Z,51.50
2019-03-19T14:03:32.941Z,50.16
2019-03-19T14:06:03.227Z,47.76
2019-03-19T14:08:33.630Z,47.21
2019-03-19T14:11:04.298Z,46.54
2019-03-19T14:13:34.512Z,45.22
2019-03-19T14:16:07.463Z,45.10
2019-03-19T14:18:38.044Z,45.96
2019-03-19T14:21:08.726Z,45.94
2019-03-19T14:23:38.940Z,46.90
2019-03-19T14:26:12.672Z,47.62
2019-03-19T14:28:45.254Z,49.55
2019-03-19T14:31:15.501Z,49.03
2019-03-19T14:33:48.030Z,49.70
2019-03-19T14:36:18.426Z,48.57
2019-03-19T14:38:48.773Z,50.15
2019-03-19T14:41:19.250Z,50.93
2019-03-19T14:43:49.506Z,51.48
2019-03-19T14:46:19.697Z,52.36
2019-03-19T14:48:50.040Z,53.79
2019-03-19T14:51:20.495Z,55.56
2019-03-19T14:53:50.769Z,59.23
2019-03-19T14:56:21.322Z,66.51
2019-03-19T14:58:51.622Z,69.12
2019-03-19T15:01:26.301Z,71.11
2019-03-19T15:03:56.678Z,72.53
2019-03-19T15:06:34.451Z,71.11
2019-03-19T15:09:15.069Z,70.41
2019-03-19T15:11:58.111Z,71.36
2019-03-19T15:14:38.241Z,69.22
2019-03-19T15:17:17.854Z,72.75
2019-03-19T15:20:01.288Z,70.15
2019-03-19T15:22:41.352Z,70.51
2019-03-19T15:25:12.543Z,70.85
2019-03-19T15:27:42.960Z,70.81
2019-03-19T15:30:13.451Z,71.17
2019-03-19T15:32:43.817Z,71.71
2019-03-19T15:35:15.816Z,67.78
2019-03-19T15:37:46.225Z,67.84
2019-03-19T15:40:16.795Z,66.44
2019-03-19T15:42:47.219Z,65.80
2019-03-19T15:45:17.549Z,66.16
2019-03-19T15:47:47.784Z,66.13
2019-03-19T15:50:19.210Z,67.02
2019-03-19T15:52:49.484Z,66.70
2019-03-19T15:55:19.831Z,65.38
2019-03-19T15:57:52.349Z,63.79
2019-03-19T16:00:23.669Z,63.62
2019-03-19T16:02:53.869Z,63.10
2019-03-19T16:05:24.186Z,65.03
2019-03-19T16:07:54.444Z,63.64
2019-03-19T16:10:36.565Z,64.03
2019-03-19T16:13:07.334Z,63.68
2019-03-19T16:15:37.873Z,64.17
2019-03-19T16:18:08.195Z,64.81
2019-03-19T16:20:38.807Z,63.90
2019-03-19T16:23:19.290Z,63.81
2019-03-19T16:25:49.539Z,64.60
2019-03-19T16:28:21.691Z,65.02
2019-03-19T16:30:51.898Z,63.92
2019-03-19T16:33:22.255Z,64.44
2019-03-19T16:35:53.593Z,64.51
2019-03-19T16:38:23.891Z,64.35
2019-03-19T16:40:55.682Z,63.57
2019-03-19T16:43:25.940Z,64.35
2019-03-19T16:45:56.541Z,65.20
2019-03-19T16:48:26.872Z,65.51
2019-03-19T16:50:57.153Z,63.35
2019-03-19T16:53:27.548Z,64.32
2019-03-19T16:56:09.504Z,63.92
2019-03-19T16:58:41.493Z,63.51
2019-03-19T17:01:11.790Z,63.40
2019-03-19T17:03:41.978Z,63.98
2019-03-19T17:06:13.056Z,63.83
2019-03-19T17:08:48.070Z,63.74
2019-03-19T17:11:18.359Z,63.81
2019-03-19T17:13:48.802Z,63.63
2019-03-19T17:16:19.159Z,63.60
2019-03-19T17:18:49.353Z,64.32
2019-03-19T17:21:20.130Z,63.77
2019-03-19T17:23:50.357Z,63.95
2019-03-19T17:26:20.566Z,64.03
2019-03-19T17:28:50.811Z,63.50
2019-03-19T17:31:21.126Z,64.16
2019-03-19T17:33:51.369Z,64.55
2019-03-19T17:36:21.653Z,64.48
2019-03-19T17:38:59.420Z,64.52
2019-03-19T17:41:29.666Z,64.47
2019-03-19T17:44:02.815Z,64.89
2019-03-19T17:46:33.136Z,64.02
2019-03-19T17:49:03.339Z,63.06
2019-03-19T17:51:33.587Z,64.47
2019-03-19T17:54:04.039Z,64.91
2019-03-19T17:56:51.255Z,63.75
2019-03-19T17:59:21.504Z,63.88
2019-03-19T18:01:51.821Z,63.78
2019-03-19T18:04:22.048Z,63.18
2019-03-19T18:06:52.444Z,63.67
2019-03-19T18:09:22.769Z,64.22
2019-03-19T18:11:53.044Z,63.90
2019-03-19T18:14:23.320Z,65.73
2019-03-19T18:16:53.615Z,65.39
2019-03-19T18:19:26.147Z,65.94
2019-03-19T18:21:56.575Z,66.90
2019-03-19T18:24:26.955Z,67.15
2019-03-19T18:26:57.262Z,67.44
2019-03-19T18:29:27.643Z,66.04
2019-03-19T18:31:58.027Z,64.84
2019-03-19T18:34:28.326Z,65.52
2019-03-19T18:36:58.766Z,65.87
2019-03-19T18:39:29.106Z,66.38
2019-03-19T18:41:59.348Z,66.44
2019-03-19T18:44:30.568Z,67.06
2019-03-19T18:47:01.020Z,66.57
2019-03-19T18:49:31.617Z,67.06
2019-03-19T18:52:01.981Z,67.10
2019-03-19T18:54:32.302Z,67.34
2019-03-19T18:57:02.637Z,67.09
2019-03-19T18:59:32.946Z,66.65
2019-03-19T19:02:03.248Z,67.63
2019-03-19T19:04:33.517Z,68.40
2019-03-19T19:07:03.983Z,69.04
2019-03-19T19:09:34.344Z,70.15
2019-03-19T19:12:04.566Z,69.32
2019-03-19T19:14:34.890Z,69.69
2019-03-19T19:17:05.182Z,69.66
2019-03-19T19:19:36.563Z,68.71
2019-03-19T19:22:07.231Z,68.77
2019-03-19T19:24:39.127Z,69.14
2019-03-19T19:27:09.589Z,68.33
2019-03-19T19:29:39.875Z,69.28
2019-03-19T19:32:11.418Z,68.31
2019-03-19T19:34:41.918Z,67.87
2019-03-19T19:37:12.270Z,68.36
2019-03-19T19:39:42.567Z,68.87
2019-03-19T19:42:12.959Z,68.61
2019-03-19T19:44:43.308Z,69.41
2019-03-19T19:47:13.531Z,69.19
2019-03-19T19:49:43.812Z,69.73
2019-03-19T19:52:14.154Z,68.83
2019-03-19T19:54:48.379Z,69.73
2019-03-19T19:57:19.581Z,69.75
2019-03-19T19:59:50.113Z,69.35
2019-03-19T20:02:20.366Z,70.24
2019-03-19T20:04:50.643Z,69.71
2019-03-19T20:07:20.920Z,69.20
2019-03-19T20:09:51.234Z,69.72
2019-03-19T20:12:21.610Z,70.13
2019-03-19T20:14:52.060Z,69.98
2019-03-19T20:17:22.354Z,70.25
2019-03-19T20:19:55.224Z,71.07
2019-03-19T20:22:25.847Z,70.29
2019-03-19T20:24:56.139Z,71.41
2019-03-19T20:27:26.440Z,71.25
2019-03-19T20:29:56.650Z,69.92
2019-03-19T20:32:28.096Z,70.09
2019-03-19T20:34:58.406Z,70.33
2019-03-19T20:37:28.812Z,70.55
2019-03-19T20:39:59.915Z,70.18
2019-03-19T20:42:30.136Z,70.47
2019-03-19T20:45:00.416Z,69.89
2019-03-19T20:47:31.737Z,70.63
2019-03-19T20:50:02.170Z,70.00
2019-03-19T20:52:32.541Z,71.00
2019-03-19T20:55:02.752Z,70.88
2019-03-19T20:57:32.981Z,71.04
2019-03-19T21:00:03.320Z,70.52
2019-03-19T21:02:33.764Z,70.72
2019-03-19T21:05:04.229Z,70.83
2019-03-19T21:07:34.522Z,70.49
2019-03-19T21:10:06.078Z,70.74
2019-03-19T21:12:36.364Z,70.91
2019-03-19T21:15:07.213Z,71.24
2019-03-19T21:17:37.504Z,70.78
2019-03-19T21:20:08.065Z,69.88
2019-03-19T21:22:38.588Z,69.99
2019-03-19T21:25:08.821Z,70.40
2019-03-19T21:27:39.160Z,70.34
2019-03-19T21:30:10.195Z,70.27
2019-03-19T21:32:40.480Z,69.88
2019-03-19T21:35:11.986Z,69.61
2019-03-19T21:37:42.233Z,70.26
2019-03-19T21:40:13.678Z,70.29
2019-03-19T21:42:43.920Z,69.83
2019-03-19T21:45:14.322Z,70.31
2019-03-19T21:47:44.610Z,70.23
2019-03-19T21:50:15.327Z,70.12
2019-03-19T21:52:45.718Z,69.86
2019-03-19T21:55:16.060Z,69.30
2019-03-19T21:57:46.301Z,69.11
2019-03-19T22:00:17.535Z,69.22
2019-03-19T22:02:47.875Z,68.93
2019-03-19T22:05:18.103Z,68.64
2019-03-19T22:07:48.383Z,68.00
2019-03-19T22:10:18.668Z,68.67
2019-03-19T22:12:49.747Z,68.60
2019-03-19T22:15:20.471Z,68.10
2019-03-19T22:17:52.936Z,67.94
2019-03-19T22:20:25.940Z,68.24
2019-03-19T22:22:57.036Z,68.35
2019-03-19T22:25:27.517Z,68.11
2019-03-19T22:27:57.889Z,67.00
2019-03-19T22:30:28.170Z,66.56
2019-03-19T22:33:04.884Z,66.83
2019-03-19T22:35:35.127Z,67.64
2019-03-19T22:38:05.676Z,67.92
2019-03-19T22:40:36.294Z,68.18
2019-03-19T22:43:07.672Z,68.13
2019-03-19T22:45:37.973Z,66.70
2019-03-19T22:48:08.280Z,67.35
2019-03-19T22:50:38.499Z,67.61
2019-03-19T22:53:08.744Z,67.74
2019-03-19T22:55:38.946Z,68.22
2019-03-19T22:58:09.214Z,68.27
2019-03-19T23:00:41.787Z,68.63
2019-03-19T23:03:13.481Z,67.51
2019-03-19T23:05:43.695Z,67.68
2019-03-19T23:08:13.931Z,67.44
2019-03-19T23:10:44.178Z,68.41
2019-03-19T23:13:14.749Z,67.88
2019-03-19T23:15:45.005Z,68.89
2019-03-19T23:18:16.278Z,69.34
2019-03-19T23:20:46.489Z,69.55
2019-03-19T23:23:17.027Z,69.17
2019-03-19T23:25:47.249Z,68.34
2019-03-19T23:28:17.589Z,68.07
2019-03-19T23:30:48.139Z,67.63
2019-03-19T23:33:18.480Z,67.36
2019-03-19T23:35:48.793Z,67.33
2019-03-19T23:38:19.136Z,68.62
2019-03-19T23:40:49.413Z,69.62
2019-03-19T23:43:19.777Z,71.83
2019-03-19T23:45:50.141Z,71.54
2019-03-19T23:48:20.422Z,70.64
2019-03-19T23:50:50.810Z,70.86
2019-03-19T23:53:21.167Z,70.43
2019-03-19T23:55:51.427Z,70.12
2019-03-19T23:58:21.720Z,71.66
